createdAt,value
2022-08-25T00:00:23.433Z,8.15
2022-08-25T00:02:55.152Z,8.30
2022-08-25T00:05:29.412Z,8.27
2022-08-25T00:08:01.010Z,8.07
2022-08-25T00:10:30.018Z,7.60
2022-08-25T00:13:00.402Z,8.52
2022-08-25T00:15:29.357Z,8.60
2022-08-25T00:17:58.045Z,8.57
2022-08-25T00:20:26.916Z,8.40
2022-08-25T00:22:56.274Z,8.43
2022-08-25T00:25:25.253Z,9.15
2022-08-25T00:27:53.842Z,7.63
2022-08-25T00:30:24.133Z,8.02
2022-08-25T00:32:55.313Z,8.57
2022-08-25T00:35:27.571Z,8.07
2022-08-25T00:37:56.669Z,8.43
2022-08-25T00:40:26.854Z,8.35
2022-08-25T00:42:56.192Z,8.70
2022-08-25T00:45:29.248Z,8.35
2022-08-25T00:47:59.964Z,7.93
2022-08-25T00:50:29.685Z,7.57
2022-08-25T00:53:02.027Z,7.70
2022-08-25T00:55:32.840Z,7.97
2022-08-25T00:58:06.469Z,7.50
2022-08-25T01:00:40.055Z,7.55
2022-08-25T01:03:09.083Z,7.60
2022-08-25T01:05:38.161Z,7.97
2022-08-25T01:08:09.262Z,7.75
2022-08-25T01:10:41.455Z,8.93
2022-08-25T01:13:18.190Z,7.85
2022-08-25T01:15:49.998Z,8.73
2022-08-25T01:18:18.918Z,7.40
2022-08-25T01:20:51.493Z,7.82
2022-08-25T01:23:20.290Z,7.80
2022-08-25T01:25:53.502Z,7.95
2022-08-25T01:28:22.724Z,8.73
2022-08-25T01:30:52.647Z,8.10
2022-08-25T01:33:21.778Z,7.78
2022-08-25T01:35:51.875Z,7.68
2022-08-25T01:38:21.108Z,7.60
2022-08-25T01:40:52.059Z,7.60
2022-08-25T01:43:28.747Z,7.88
2022-08-25T01:45:58.371Z,8.25
2022-08-25T01:48:27.007Z,7.93
2022-08-25T01:50:57.092Z,7.75
2022-08-25T01:53:29.566Z,7.80
2022-08-25T01:56:09.742Z,8.32
2022-08-25T01:58:41.650Z,7.88
2022-08-25T02:01:12.582Z,8.27
2022-08-25T02:03:43.947Z,8.23
2022-08-25T02:06:17.802Z,7.78
2022-08-25T02:08:46.887Z,7.80
2022-08-25T02:11:16.650Z,7.63
2022-08-25T02:13:45.418Z,8.43
2022-08-25T02:16:20.801Z,8.43
2022-08-25T02:18:49.482Z,8.43
2022-08-25T02:21:19.635Z,8.43
2022-08-25T02:23:48.386Z,9.38
2022-08-25T02:26:19.204Z,9.68
2022-08-25T02:28:48.319Z,9.00
2022-08-25T02:31:18.613Z,9.45
2022-08-25T02:33:47.215Z,11.80
2022-08-25T02:36:16.185Z,10.35
2022-08-25T02:38:46.268Z,10.40
2022-08-25T02:41:17.886Z,9.57
2022-08-25T02:43:48.234Z,9.35
2022-08-25T02:46:18.754Z,9.48
2022-08-25T02:48:48.104Z,8.80
2022-08-25T02:51:17.020Z,9.65
2022-08-25T02:53:47.486Z,9.93
2022-08-25T02:56:16.840Z,9.80
2022-08-25T02:58:46.075Z,9.10
2022-08-25T03:01:16.383Z,8.38
2022-08-25T03:03:46.636Z,8.88
2022-08-25T03:06:17.008Z,8.05
2022-08-25T03:08:47.603Z,8.48
2022-08-25T03:11:16.235Z,8.75
2022-08-25T03:13:45.075Z,9.35
2022-08-25T03:16:14.213Z,9.57
2022-08-25T03:18:43.803Z,9.55
2022-08-25T03:21:13.519Z,7.95
2022-08-25T03:23:44.895Z,8.75
2022-08-25T03:26:32.660Z,9.48
2022-08-25T03:29:05.206Z,10.07
2022-08-25T03:31:34.552Z,10.15
2022-08-25T03:34:03.330Z,10.32
2022-08-25T03:36:32.064Z,10.32
2022-08-25T03:39:00.748Z,9.68
2022-08-25T03:41:32.852Z,11.65
2022-08-25T03:44:02.117Z,11.00
2022-08-25T03:46:34.540Z,13.00
2022-08-25T03:49:04.335Z,11.13
2022-08-25T03:51:35.311Z,11.48
2022-08-25T03:54:05.428Z,10.50
2022-08-25T03:56:35.714Z,10.70
2022-08-25T03:59:09.314Z,9.68
2022-08-25T04:01:38.594Z,10.00
2022-08-25T04:04:08.922Z,11.30
2022-08-25T04:06:37.855Z,10.48
2022-08-25T04:09:06.628Z,10.63
2022-08-25T04:11:36.943Z,10.20
2022-08-25T04:14:06.143Z,9.98
2022-08-25T04:16:36.365Z,10.07
2022-08-25T04:19:09.093Z,10.52
2022-08-25T04:21:39.075Z,9.75
2022-08-25T04:24:08.822Z,9.57
2022-08-25T04:26:41.078Z,10.23
2022-08-25T04:29:11.803Z,10.63
2022-08-25T04:31:41.713Z,9.48
2022-08-25T04:34:28.497Z,10.02
2022-08-25T04:37:00.763Z,9.75
2022-08-25T04:39:29.533Z,9.77
2022-08-25T04:42:00.923Z,10.27
2022-08-25T04:44:31.167Z,9.45
2022-08-25T04:46:59.861Z,10.10
2022-08-25T04:49:28.954Z,10.45
2022-08-25T04:51:57.699Z,10.05
2022-08-25T04:54:26.507Z,10.45
2022-08-25T04:56:58.723Z,9.73
2022-08-25T04:59:30.192Z,9.80
2022-08-25T05:02:02.692Z,10.27
2022-08-25T05:04:32.795Z,9.15
2022-08-25T05:07:01.775Z,8.98
2022-08-25T05:09:32.684Z,8.90
2022-08-25T05:12:02.934Z,9.75
2022-08-25T05:14:33.769Z,11.27
2022-08-25T05:17:02.981Z,12.70
2022-08-25T05:19:31.678Z,13.45
2022-08-25T05:22:00.232Z,12.52
2022-08-25T05:24:29.808Z,11.05
2022-08-25T05:26:58.907Z,10.52
2022-08-25T05:29:27.902Z,11.98
2022-08-25T05:31:58.050Z,12.30
2022-08-25T05:34:26.865Z,11.05
2022-08-25T05:36:57.501Z,11.18
2022-08-25T05:39:26.828Z,10.18
2022-08-25T05:41:55.797Z,10.80
2022-08-25T05:44:24.402Z,10.73
2022-08-25T05:46:53.334Z,11.15
2022-08-25T05:49:23.341Z,11.43
2022-08-25T05:51:51.921Z,10.52
2022-08-25T05:54:21.140Z,9.65
2022-08-25T05:56:49.679Z,10.25
2022-08-25T05:59:18.840Z,9.30
2022-08-25T06:02:04.758Z,9.70
2022-08-25T06:04:36.584Z,9.50
2022-08-25T06:07:07.110Z,13.10
2022-08-25T06:09:35.754Z,9.85
2022-08-25T06:12:04.906Z,9.95
2022-08-25T06:14:36.285Z,8.93
2022-08-25T06:17:05.948Z,10.07
2022-08-25T06:19:37.058Z,8.35
2022-08-25T06:22:08.367Z,9.10
2022-08-25T06:24:37.199Z,8.23
2022-08-25T06:27:06.326Z,9.00
2022-08-25T06:29:35.017Z,8.90
2022-08-25T06:32:03.906Z,8.73
2022-08-25T06:34:32.740Z,8.50
2022-08-25T06:37:03.047Z,8.27
2022-08-25T06:39:31.847Z,7.65
2022-08-25T06:42:00.500Z,8.00
2022-08-25T06:44:29.555Z,7.80
2022-08-25T06:46:58.520Z,7.90
2022-08-25T06:49:30.922Z,7.90
2022-08-25T06:52:03.182Z,8.07
2022-08-25T06:54:31.868Z,7.70
2022-08-25T06:57:00.911Z,7.72
2022-08-25T06:59:32.466Z,7.03
2022-08-25T07:02:01.614Z,7.40
2022-08-25T07:04:32.290Z,7.30
2022-08-25T07:07:02.545Z,7.75
2022-08-25T07:09:31.302Z,7.10
2022-08-25T07:12:00.098Z,7.75
2022-08-25T07:14:28.732Z,7.30
2022-08-25T07:16:58.081Z,6.55
2022-08-25T07:19:30.285Z,7.13
2022-08-25T07:22:01.738Z,6.63
2022-08-25T07:24:31.841Z,6.38
2022-08-25T07:27:00.472Z,6.30
2022-08-25T07:29:33.261Z,6.35
2022-08-25T07:32:02.648Z,6.30
2022-08-25T07:34:52.424Z,6.80
2022-08-25T07:37:45.489Z,6.97
2022-08-25T07:40:15.324Z,7.63
2022-08-25T07:42:44.133Z,6.90
2022-08-25T07:45:13.896Z,7.22
2022-08-25T07:47:44.295Z,6.22
2022-08-25T07:50:14.659Z,6.13
2022-08-25T07:52:44.873Z,7.07
2022-08-25T07:55:24.602Z,7.22
2022-08-25T07:57:56.061Z,6.90
2022-08-25T08:00:28.103Z,7.03
2022-08-25T08:02:57.217Z,6.32
2022-08-25T08:05:26.161Z,6.55
2022-08-25T08:07:54.816Z,6.38
2022-08-25T08:10:47.768Z,5.90
2022-08-25T08:13:18.348Z,5.65
2022-08-25T08:15:48.169Z,5.80
2022-08-25T08:18:17.198Z,6.57
2022-08-25T08:20:48.532Z,6.07
2022-08-25T08:23:17.760Z,6.82
2022-08-25T08:25:48.167Z,7.20
2022-08-25T08:28:17.873Z,5.82
2022-08-25T08:30:53.516Z,5.55
2022-08-25T08:33:24.450Z,6.03
2022-08-25T08:36:05.088Z,5.70
2022-08-25T08:38:34.751Z,5.72
2022-08-25T08:42:09.591Z,5.95
2022-08-25T08:44:39.608Z,6.40
2022-08-25T08:47:13.478Z,5.90
2022-08-25T08:49:48.208Z,5.45
2022-08-25T08:52:20.612Z,5.97
2022-08-25T08:54:52.004Z,5.15
2022-08-25T08:57:27.199Z,5.40
2022-08-25T08:59:59.401Z,5.90
2022-08-25T09:02:39.485Z,5.88
2022-08-25T09:05:21.023Z,5.30
2022-08-25T09:07:54.576Z,5.15
2022-08-25T09:10:24.949Z,5.45
2022-08-25T09:13:00.859Z,5.60
2022-08-25T09:15:51.700Z,5.65
2022-08-25T09:18:29.138Z,6.35
2022-08-25T09:21:05.483Z,5.78
2022-08-25T09:23:43.548Z,5.75
2022-08-25T09:26:23.061Z,6.57
2022-08-25T09:28:56.434Z,7.32
2022-08-25T09:31:29.843Z,5.13
2022-08-25T09:34:00.117Z,5.18
2022-08-25T09:36:29.037Z,5.38
2022-08-25T09:38:57.952Z,5.25
2022-08-25T09:41:42.923Z,5.57
2022-08-25T09:44:21.241Z,5.40
2022-08-25T09:47:02.077Z,5.13
2022-08-25T09:49:37.789Z,4.70
2022-08-25T09:52:33.179Z,4.95
2022-08-25T09:55:21.749Z,24.83
2022-08-25T09:57:55.251Z,5.05
2022-08-25T10:00:28.036Z,5.25
2022-08-25T10:03:13.998Z,5.22
2022-08-25T10:06:02.502Z,5.18
2022-08-25T10:08:34.806Z,6.07
2022-08-25T10:11:08.646Z,5.78
2022-08-25T10:13:41.467Z,5.38
2022-08-25T10:16:24.124Z,5.50
2022-08-25T10:19:05.340Z,5.40
2022-08-25T10:21:34.645Z,4.80
2022-08-25T10:24:05.997Z,5.43
2022-08-25T10:26:45.820Z,4.95
2022-08-25T10:29:28.619Z,6.05
2022-08-25T10:32:01.442Z,5.20
2022-08-25T10:34:39.288Z,5.65
2022-08-25T10:37:18.530Z,5.55
2022-08-25T10:39:55.548Z,5.80
2022-08-25T10:42:37.895Z,5.57
2022-08-25T10:45:36.603Z,6.15
2022-08-25T10:48:22.832Z,5.25
2022-08-25T10:50:57.139Z,5.35
2022-08-25T10:53:30.869Z,5.45
2022-08-25T10:56:09.160Z,5.43
2022-08-25T10:58:59.883Z,5.78
2022-08-25T11:01:43.774Z,5.57
2022-08-25T11:04:17.365Z,5.45
2022-08-25T11:06:54.753Z,5.65
2022-08-25T11:09:26.838Z,5.93
2022-08-25T11:11:58.004Z,6.57
2022-08-25T11:14:34.450Z,6.15
2022-08-25T11:17:08.075Z,5.15
2022-08-25T11:22:14.632Z,6.00
2022-08-25T11:24:58.239Z,5.93
2022-08-25T11:27:32.208Z,7.45
2022-08-25T11:30:07.203Z,5.80
2022-08-25T11:32:37.136Z,6.68
2022-08-25T11:35:12.214Z,6.32
2022-08-25T11:37:47.304Z,5.97
2022-08-25T11:40:37.261Z,6.68
2022-08-25T11:43:16.214Z,6.22
2022-08-25T11:46:03.165Z,6.32
2022-08-25T11:48:40.987Z,6.35
2022-08-25T11:51:12.624Z,6.00
2022-08-25T11:53:42.564Z,6.55
2022-08-25T11:56:12.786Z,8.63
2022-08-25T11:58:46.800Z,6.20
2022-08-25T12:02:11.233Z,6.35
2022-08-25T12:04:45.264Z,6.28
2022-08-25T12:07:22.185Z,6.80
2022-08-25T12:10:21.620Z,7.32
2022-08-25T12:13:16.107Z,7.40
2022-08-25T12:16:00.584Z,7.40
2022-08-25T12:18:51.306Z,6.90
2022-08-25T12:21:34.257Z,6.25
2022-08-25T12:24:16.293Z,6.73
2022-08-25T12:26:50.618Z,6.55
2022-08-25T12:29:27.200Z,6.72
2022-08-25T12:32:14.327Z,6.47
2022-08-25T12:34:55.201Z,6.90
2022-08-25T12:37:25.057Z,7.07
2022-08-25T12:40:02.454Z,6.70
2022-08-25T12:42:38.115Z,6.47
2022-08-25T12:45:16.638Z,6.68
2022-08-25T12:47:49.591Z,6.72
2022-08-25T12:50:40.505Z,6.82
2022-08-25T12:53:16.264Z,6.85
2022-08-25T12:55:50.455Z,6.90
2022-08-25T12:58:19.270Z,7.18
2022-08-25T13:01:04.399Z,6.75
2022-08-25T13:03:54.250Z,6.78
2022-08-25T13:06:43.715Z,7.22
2022-08-25T13:10:00.719Z,7.20
2022-08-25T13:12:34.262Z,7.20
2022-08-25T13:17:34.127Z,7.30
2022-08-25T13:20:21.495Z,6.65
2022-08-25T13:22:57.353Z,7.10
2022-08-25T13:25:32.906Z,6.65
2022-08-25T13:28:06.626Z,6.68
2022-08-25T13:30:43.528Z,7.05
2022-08-25T13:33:20.342Z,6.60
2022-08-25T13:35:50.172Z,6.47
2022-08-25T13:38:20.221Z,6.22
2022-08-25T13:40:51.921Z,6.80
2022-08-25T13:43:23.082Z,6.78
2022-08-25T13:45:56.846Z,6.97
2022-08-25T13:48:34.861Z,7.25
2022-08-25T13:51:23.139Z,6.68
2022-08-25T13:53:55.119Z,6.50
2022-08-25T13:56:35.617Z,6.95
2022-08-25T13:59:21.673Z,6.90
2022-08-25T14:01:51.329Z,6.68
2022-08-25T14:04:51.337Z,6.80
2022-08-25T14:07:33.774Z,6.68
2022-08-25T14:10:07.778Z,6.47
2022-08-25T14:12:42.115Z,7.20
2022-08-25T14:15:33.381Z,8.85
2022-08-25T14:18:05.290Z,6.35
2022-08-25T14:20:34.817Z,6.25
2022-08-25T14:23:09.697Z,6.85
2022-08-25T14:25:42.202Z,7.00
2022-08-25T14:28:14.059Z,6.00
2022-08-25T14:30:47.399Z,6.90
2022-08-25T14:33:17.876Z,6.20
2022-08-25T14:35:50.122Z,6.50
2022-08-25T14:38:20.777Z,6.20
2022-08-25T14:40:50.322Z,6.40
2022-08-25T14:43:23.778Z,6.40
2022-08-25T14:45:54.549Z,6.55
2022-08-25T14:48:27.715Z,6.55
2022-08-25T14:50:58.253Z,6.80
2022-08-25T14:53:29.529Z,6.57
2022-08-25T14:55:59.110Z,6.38
2022-08-25T14:58:33.980Z,6.50
2022-08-25T15:01:06.520Z,6.30
2022-08-25T15:03:38.500Z,6.87
2022-08-25T15:06:07.802Z,6.55
2022-08-25T15:08:57.486Z,6.50
2022-08-25T15:11:26.409Z,6.60
2022-08-25T15:13:58.540Z,6.55
2022-08-25T15:16:33.833Z,6.80
2022-08-25T15:19:06.600Z,6.75
2022-08-25T15:21:36.751Z,6.70
2022-08-25T15:24:06.074Z,6.93
2022-08-25T15:26:41.342Z,6.43
2022-08-25T15:29:10.064Z,7.00
2022-08-25T15:31:40.728Z,7.15
2022-08-25T15:34:11.816Z,6.65
2022-08-25T15:36:40.766Z,6.60
2022-08-25T15:39:11.649Z,7.40
2022-08-25T15:41:40.577Z,6.97
2022-08-25T15:44:12.606Z,6.85
2022-08-25T15:46:46.911Z,7.03
2022-08-25T15:49:20.688Z,6.93
2022-08-25T15:54:21.688Z,7.47
2022-08-25T15:56:50.255Z,7.38
2022-08-25T15:59:21.790Z,7.70
2022-08-25T16:01:54.904Z,7.28
2022-08-25T16:04:24.196Z,7.57
2022-08-25T16:06:53.624Z,8.13
2022-08-25T16:09:24.456Z,7.68
2022-08-25T16:11:55.922Z,7.65
2022-08-25T16:14:27.627Z,7.43
2022-08-25T16:16:59.694Z,7.47
2022-08-25T16:19:29.054Z,7.30
2022-08-25T16:21:58.068Z,8.00
2022-08-25T16:24:26.895Z,7.65
2022-08-25T16:27:00.421Z,7.70
2022-08-25T16:29:40.874Z,7.45
2022-08-25T16:32:13.452Z,8.57
2022-08-25T16:34:42.858Z,7.38
2022-08-25T16:37:15.858Z,7.90
2022-08-25T16:39:46.158Z,7.70
2022-08-25T16:42:15.194Z,7.60
2022-08-25T16:44:43.956Z,7.75
2022-08-25T16:47:17.663Z,7.63
2022-08-25T16:49:49.086Z,7.90
2022-08-25T16:52:35.091Z,8.38
2022-08-25T16:55:19.520Z,7.72
2022-08-25T16:57:49.942Z,8.38
2022-08-25T17:00:22.076Z,9.05
2022-08-25T17:02:54.437Z,8.30
2022-08-25T17:05:23.091Z,7.88
2022-08-25T17:08:05.759Z,8.40
2022-08-25T17:10:37.848Z,8.55
2022-08-25T17:13:09.731Z,9.00
2022-08-25T17:15:41.773Z,9.50
2022-08-25T17:18:12.859Z,10.02
2022-08-25T17:20:43.353Z,9.68
2022-08-25T17:23:12.980Z,8.90
2022-08-25T17:25:43.633Z,11.00
2022-08-25T17:28:13.529Z,9.25
2022-08-25T17:30:45.894Z,13.88
2022-08-25T17:33:16.827Z,11.95
2022-08-25T17:35:54.074Z,9.90
2022-08-25T17:38:26.916Z,10.65
2022-08-25T17:40:59.178Z,10.57
2022-08-25T17:43:28.670Z,9.88
2022-08-25T17:45:58.172Z,9.63
2022-08-25T17:48:29.103Z,10.48
2022-08-25T17:51:02.314Z,10.15
2022-08-25T17:53:31.645Z,9.95
2022-08-25T17:56:01.982Z,10.77
2022-08-25T17:58:32.768Z,9.43
2022-08-25T18:01:02.275Z,10.27
2022-08-25T18:03:32.560Z,10.15
2022-08-25T18:06:01.508Z,10.27
2022-08-25T18:08:35.371Z,9.77
2022-08-25T18:11:04.998Z,10.10
2022-08-25T18:13:33.822Z,9.60
2022-08-25T18:16:02.834Z,10.50
2022-08-25T18:18:34.526Z,10.45
2022-08-25T18:21:07.080Z,9.55
2022-08-25T18:23:35.933Z,10.23
2022-08-25T18:26:04.655Z,10.65
2022-08-25T18:28:35.686Z,9.50
2022-08-25T18:31:04.522Z,9.35
2022-08-25T18:33:34.865Z,9.65
2022-08-25T18:36:04.358Z,10.25
2022-08-25T18:38:50.514Z,9.77
2022-08-25T18:41:27.316Z,9.70
2022-08-25T18:43:57.057Z,9.93
2022-08-25T18:46:26.646Z,11.63
2022-08-25T18:48:56.888Z,13.07
2022-08-25T18:51:25.541Z,12.52
2022-08-25T18:53:54.683Z,11.60
2022-08-25T18:56:28.259Z,12.30
2022-08-25T18:58:57.507Z,12.63
2022-08-25T19:01:26.452Z,12.38
2022-08-25T19:03:58.932Z,11.68
2022-08-25T19:06:27.613Z,11.57
2022-08-25T19:08:56.254Z,13.15
2022-08-25T19:11:25.793Z,11.70
2022-08-25T19:13:55.216Z,11.18
2022-08-25T19:16:34.608Z,11.38
2022-08-25T19:19:08.438Z,12.75
2022-08-25T19:21:38.732Z,13.48
2022-08-25T19:24:08.394Z,14.15
2022-08-25T19:26:37.503Z,13.07
2022-08-25T19:29:09.468Z,12.82
2022-08-25T19:31:39.225Z,12.27
2022-08-25T19:34:11.173Z,12.85
2022-08-25T19:36:42.530Z,10.52
2022-08-25T19:39:12.337Z,11.65
2022-08-25T19:41:42.203Z,12.82
2022-08-25T19:44:12.195Z,12.20
2022-08-25T19:46:43.382Z,11.52
2022-08-25T19:49:16.913Z,11.63
2022-08-25T19:51:50.459Z,12.05
2022-08-25T19:54:22.624Z,12.98
2022-08-25T19:56:54.825Z,12.20
2022-08-25T19:59:40.792Z,12.68
2022-08-25T20:02:15.470Z,12.80
2022-08-25T20:04:49.570Z,13.07
2022-08-25T20:07:20.353Z,14.23
2022-08-25T20:09:49.060Z,12.82
2022-08-25T20:12:18.252Z,12.18
2022-08-25T20:14:47.235Z,12.82
2022-08-25T20:17:24.712Z,12.70
2022-08-25T20:19:58.453Z,12.40
2022-08-25T20:22:28.225Z,13.00
2022-08-25T20:24:58.363Z,13.07
2022-08-25T20:27:30.048Z,11.93
2022-08-25T20:29:59.898Z,11.80
2022-08-25T20:32:33.894Z,12.18
2022-08-25T20:35:05.601Z,12.18
2022-08-25T20:37:37.974Z,12.75
2022-08-25T20:40:08.507Z,12.00
2022-08-25T20:42:41.336Z,11.23
2022-08-25T20:45:13.571Z,11.70
2022-08-25T20:47:44.382Z,13.88
2022-08-25T20:50:15.047Z,14.18
2022-08-25T20:52:44.066Z,14.77
2022-08-25T20:55:13.935Z,14.02
2022-08-25T20:57:42.709Z,13.88
2022-08-25T21:00:12.990Z,14.77
2022-08-25T21:02:41.787Z,14.23
2022-08-25T21:05:10.740Z,15.40
2022-08-25T21:07:41.654Z,15.27
2022-08-25T21:10:14.240Z,16.55
2022-08-25T21:12:45.244Z,15.37
2022-08-25T21:15:18.127Z,15.40
2022-08-25T21:17:50.882Z,15.15
2022-08-25T21:20:19.652Z,15.48
2022-08-25T21:22:49.898Z,15.32
2022-08-25T21:25:19.955Z,14.75
2022-08-25T21:27:49.330Z,14.38
2022-08-25T21:30:19.314Z,14.68
2022-08-25T21:32:53.658Z,14.88
2022-08-25T21:35:23.603Z,15.35
2022-08-25T21:37:54.864Z,15.18
2022-08-25T21:40:24.793Z,14.00
2022-08-25T21:42:53.633Z,15.00
2022-08-25T21:45:22.419Z,15.98
2022-08-25T21:47:51.799Z,15.15
2022-08-25T21:50:21.385Z,15.50
2022-08-25T21:52:54.314Z,15.82
2022-08-25T21:55:25.143Z,15.25
2022-08-25T21:57:54.889Z,14.90
2022-08-25T22:00:24.094Z,15.32
2022-08-25T22:02:53.741Z,14.82
2022-08-25T22:05:22.497Z,14.10
2022-08-25T22:07:51.216Z,13.98
2022-08-25T22:10:21.058Z,13.75
2022-08-25T22:12:53.072Z,13.57
2022-08-25T22:15:23.416Z,14.43
2022-08-25T22:17:52.342Z,13.90
2022-08-25T22:20:21.149Z,14.82
2022-08-25T22:22:49.719Z,15.52
2022-08-25T22:25:18.832Z,14.75
2022-08-25T22:27:48.223Z,16.00
2022-08-25T22:30:29.462Z,14.48
2022-08-25T22:33:01.556Z,15.45
2022-08-25T22:35:33.252Z,16.38
2022-08-25T22:38:02.253Z,16.38
2022-08-25T22:40:36.798Z,17.38
2022-08-25T22:45:36.331Z,15.75
2022-08-25T22:48:06.131Z,15.50
2022-08-25T22:50:36.231Z,16.00
2022-08-25T22:53:05.119Z,16.02
2022-08-25T22:55:33.753Z,15.77
2022-08-25T22:58:02.567Z,16.63
2022-08-25T23:00:31.709Z,15.82
2022-08-25T23:03:01.912Z,16.98
2022-08-25T23:05:30.655Z,17.45
2022-08-25T23:08:00.006Z,17.95
2022-08-25T23:10:28.758Z,17.45
2022-08-25T23:12:57.903Z,16.20
2022-08-25T23:15:26.816Z,17.90
2022-08-25T23:17:55.468Z,17.08
2022-08-25T23:20:44.994Z,17.25
2022-08-25T23:23:14.239Z,17.65
2022-08-25T23:25:42.928Z,17.50
2022-08-25T23:28:11.560Z,17.65
2022-08-25T23:30:40.396Z,18.17
2022-08-25T23:33:18.839Z,18.08
2022-08-25T23:35:59.168Z,18.25
2022-08-25T23:38:31.004Z,18.70
2022-08-25T23:40:59.890Z,17.77
2022-08-25T23:43:28.491Z,18.42
2022-08-25T23:45:57.188Z,18.27
2022-08-25T23:48:26.522Z,18.80
2022-08-25T23:50:56.559Z,19.23
2022-08-25T23:53:26.349Z,18.60
2022-08-25T23:55:55.767Z,19.50
2022-08-25T23:58:25.830Z,19.05
